createdAt,value
2015-07-09T15:47:57.150Z,101007
2015-07-09T15:48:10.759Z,101016
2015-07-09T15:48:24.291Z,101023
2015-07-09T15:48:37.931Z,101013
2015-07-09T15:48:51.400Z,101020
2015-07-09T15:49:04.855Z,101026
2015-07-09T15:49:18.496Z,101016
2015-07-09T15:49:31.980Z,101032
2015-07-09T15:49:45.371Z,101016
2015-07-09T15:49:58.982Z,101016
2015-07-09T15:50:12.545Z,101017
2015-07-09T15:50:25.982Z,101013
2015-07-09T15:50:39.576Z,101026
2015-07-09T15:50:53.185Z,101007
2015-07-09T15:51:08.030Z,101017
2015-07-09T15:51:21.608Z,101020
2015-07-09T15:51:35.202Z,101017
2015-07-09T15:51:48.655Z,101020
2015-07-09T15:52:02.204Z,101011
2015-07-09T15:52:15.860Z,101023
2015-07-09T15:52:29.329Z,101005
2015-07-09T15:52:42.782Z,101017
2015-07-09T15:52:56.457Z,101030
2015-07-09T15:53:09.957Z,101008
2015-07-09T15:53:23.348Z,101027
2015-07-09T15:53:37.035Z,101014
2015-07-09T15:53:50.582Z,101018
2015-07-09T15:54:04.240Z,101030
2015-07-09T15:54:17.725Z,101021
2015-07-09T15:54:31.162Z,101015
2015-07-09T15:54:44.787Z,101015
2015-07-09T15:54:58.273Z,100996
2015-07-09T15:55:11.727Z,101015
2015-07-09T15:55:25.352Z,101012
2015-07-09T15:55:38.930Z,101009
2015-07-09T15:55:52.352Z,100999
2015-07-09T15:56:06.072Z,101009
2015-07-09T15:56:19.713Z,101002
2015-07-09T15:56:33.135Z,101002
2015-07-09T15:56:46.666Z,101015
2015-07-09T15:57:00.121Z,101021
2015-07-09T15:57:13.746Z,101021
2015-07-09T15:57:27.293Z,101015
2015-07-09T15:57:40.684Z,101012
2015-07-09T15:57:54.340Z,101015
2015-07-09T15:58:07.966Z,101015
2015-07-09T15:58:21.310Z,101012
2015-07-09T15:58:34.857Z,101009
2015-07-09T15:58:48.513Z,101003
2015-07-09T15:59:01.968Z,101003
2015-07-09T15:59:15.515Z,101028
2015-07-09T15:59:29.171Z,101021
2015-07-09T15:59:42.640Z,101021
2015-07-09T15:59:56.218Z,101028
2015-07-09T16:00:09.626Z,101009
2015-07-09T16:00:23.189Z,101021
2015-07-09T16:00:36.798Z,101021
2015-07-09T16:00:50.189Z,101012
2015-07-09T16:01:03.706Z,101012
2015-07-09T16:01:17.331Z,101012
2015-07-09T16:01:30.769Z,101015
2015-07-09T16:01:44.238Z,101018
2015-07-09T16:01:57.847Z,101012
2015-07-09T16:02:11.348Z,101024
2015-07-09T16:02:24.770Z,101015
2015-07-09T16:02:38.410Z,101018
2015-07-09T16:02:51.942Z,101018
2015-07-09T16:03:05.366Z,101021
2015-07-09T16:03:18.944Z,101018
2015-07-09T16:03:32.506Z,101015
2015-07-09T16:03:45.975Z,101018
2015-07-09T16:03:59.509Z,101024
2015-07-09T16:04:13.150Z,101012
2015-07-09T16:04:26.556Z,101033
2015-07-09T16:04:40.103Z,101021
2015-07-09T16:04:53.744Z,101024
2015-07-09T16:05:07.230Z,101012
2015-07-09T16:05:20.683Z,101015
2015-07-09T16:05:34.246Z,101021
2015-07-09T16:05:47.792Z,101021
2015-07-09T16:06:01.419Z,101027
2015-07-09T16:06:14.841Z,101012
2015-07-09T16:06:28.326Z,101024
2015-07-09T16:06:41.935Z,101030
2015-07-09T16:06:55.435Z,101024
2015-07-09T16:07:08.890Z,101033
2015-07-09T16:07:22.500Z,101021
2015-07-09T16:07:36.000Z,101037
2015-07-09T16:07:49.406Z,101024
2015-07-09T16:08:03.094Z,101024
2015-07-09T16:08:16.626Z,101033
2015-07-09T16:08:30.188Z,101030
2015-07-09T16:08:43.626Z,101037
2015-07-09T16:08:57.094Z,101030
2015-07-09T16:09:10.721Z,101015
2015-07-09T16:09:24.206Z,101027
2015-07-09T16:09:37.643Z,101021
2015-07-09T16:09:51.284Z,101024
2015-07-09T16:10:04.833Z,101040
2015-07-09T16:10:18.301Z,101037
2015-07-09T16:10:34.645Z,101027
2015-07-09T16:10:48.301Z,101040
2015-07-09T16:11:01.960Z,101031
2015-07-09T16:11:17.897Z,101040
2015-07-09T16:11:32.475Z,101034
2015-07-09T16:11:46.288Z,101043
2015-07-09T16:12:04.415Z,101031
2015-07-09T16:12:17.946Z,101031
2015-07-09T16:12:32.477Z,101034
2015-07-09T16:12:46.384Z,101034
2015-07-09T16:12:59.837Z,101034
2015-07-09T16:13:13.386Z,101024
2015-07-09T16:13:27.011Z,101049
2015-07-09T16:13:41.370Z,101037
2015-07-09T16:13:55.432Z,101058
2015-07-09T16:14:10.528Z,101049
2015-07-09T16:14:23.981Z,101033
2015-07-09T16:14:39.700Z,101027
2015-07-09T16:14:55.591Z,101027
2015-07-09T16:15:12.233Z,101024
2015-07-09T16:15:26.108Z,101030
2015-07-09T16:15:42.749Z,101033
2015-07-09T16:15:56.468Z,101027
2015-07-09T16:16:10.142Z,101043
2015-07-09T16:16:24.345Z,101024
2015-07-09T16:16:37.829Z,101027
2015-07-09T16:16:51.985Z,101024
2015-07-09T16:17:05.737Z,101034
2015-07-09T16:17:19.394Z,101024
2015-07-09T16:17:32.987Z,101024
2015-07-09T16:17:46.503Z,101015
2015-07-09T16:18:01.817Z,101027
2015-07-09T16:18:18.177Z,101034
2015-07-09T16:18:31.646Z,101037
2015-07-09T16:18:45.771Z,101027
2015-07-09T16:19:01.536Z,101021
2015-07-09T16:19:14.960Z,101028
2015-07-09T16:19:29.101Z,101025
2015-07-09T16:19:43.913Z,101037
2015-07-09T16:19:58.163Z,101028
2015-07-09T16:20:13.164Z,101031
2015-07-09T16:20:26.727Z,101037
2015-07-09T16:20:40.258Z,101027
2015-07-09T16:20:53.805Z,101031
2015-07-09T16:21:08.354Z,101024
2015-07-09T16:21:21.979Z,101024
2015-07-09T16:21:35.526Z,101024
2015-07-09T16:21:48.994Z,101027
2015-07-09T16:22:02.574Z,101024
2015-07-09T16:22:16.215Z,101021
2015-07-09T16:22:31.278Z,101034
2015-07-09T16:22:48.496Z,101034
2015-07-09T16:23:03.554Z,101031
2015-07-09T16:23:17.085Z,101015
2015-07-09T16:23:30.632Z,101028
2015-07-09T16:23:44.179Z,101031
2015-07-09T16:23:57.772Z,101021
2015-07-09T16:24:11.406Z,101015
2015-07-09T16:24:24.828Z,101031
2015-07-09T16:24:38.359Z,101024
2015-07-09T16:24:52.000Z,101031
2015-07-09T16:25:06.024Z,101025
2015-07-09T16:25:19.509Z,101025
2015-07-09T16:25:33.165Z,101034
2015-07-09T16:25:46.962Z,101034
2015-07-09T16:26:01.009Z,101034
2015-07-09T16:26:14.688Z,101025
2015-07-09T16:26:28.329Z,101034
2015-07-09T16:26:41.751Z,101031
2015-07-09T16:26:55.360Z,101021
2015-07-09T16:27:08.930Z,101028
2015-07-09T16:27:22.352Z,101028
2015-07-09T16:27:37.946Z,101028
2015-07-09T16:27:52.758Z,101040
2015-07-09T16:28:06.690Z,101021
2015-07-09T16:28:20.299Z,101028
2015-07-09T16:28:34.049Z,101028
2015-07-09T16:28:47.487Z,101025
2015-07-09T16:29:01.033Z,101025
2015-07-09T16:29:14.736Z,101040
2015-07-09T16:29:28.236Z,101037
2015-07-09T16:29:41.830Z,101022
2015-07-09T16:29:55.283Z,101028
2015-07-09T16:30:08.861Z,101025
2015-07-09T16:30:22.455Z,101034
2015-07-09T16:30:35.924Z,101028
2015-07-09T16:30:49.424Z,101034
2015-07-09T16:31:03.064Z,101034
2015-07-09T16:31:16.501Z,101022
2015-07-09T16:31:30.001Z,101016
2015-07-09T16:31:43.611Z,101034
2015-07-09T16:31:57.111Z,101022
2015-07-09T16:32:10.533Z,101041
2015-07-09T16:32:24.174Z,101031
2015-07-09T16:32:38.720Z,101028
2015-07-09T16:32:52.330Z,101034
2015-07-09T16:33:05.918Z,101028
2015-07-09T16:33:19.355Z,101034
2015-07-09T16:33:33.105Z,101038
2015-07-09T16:33:47.121Z,101034
2015-07-09T16:34:01.621Z,101034
2015-07-09T16:34:15.533Z,101028
2015-07-09T16:34:29.252Z,101028
2015-07-09T16:34:42.783Z,101031
2015-07-09T16:34:56.471Z,101047
2015-07-09T16:35:10.072Z,101035
2015-07-09T16:35:23.603Z,101025
2015-07-09T16:35:37.087Z,101028
2015-07-09T16:35:50.572Z,101028
2015-07-09T16:36:04.228Z,101031
2015-07-09T16:36:17.797Z,101035
2015-07-09T16:36:31.204Z,101025
2015-07-09T16:36:44.797Z,101019
2015-07-09T16:36:58.407Z,101044
2015-07-09T16:37:11.851Z,101031
2015-07-09T16:37:25.414Z,101031
2015-07-09T16:37:39.070Z,101037
2015-07-09T16:37:52.507Z,101037
2015-07-09T16:38:06.044Z,101034
2015-07-09T16:38:19.559Z,101028
2015-07-09T16:38:33.200Z,101037
2015-07-09T16:38:46.809Z,101028
2015-07-09T16:39:00.262Z,101037
2015-07-09T16:39:13.829Z,101053
2015-07-09T16:39:27.485Z,101034
2015-07-09T16:39:40.954Z,101037
2015-07-09T16:39:54.485Z,101041
2015-07-09T16:40:08.208Z,101031
2015-07-09T16:40:22.989Z,101044
2015-07-09T16:40:36.489Z,101041
2015-07-09T16:40:50.130Z,101038
2015-07-09T16:41:03.630Z,101038
2015-07-09T16:41:17.274Z,101041
2015-07-09T16:41:30.681Z,101047
2015-07-09T16:41:44.228Z,101035
2015-07-09T16:41:57.853Z,101041
2015-07-09T16:42:11.309Z,101035
2015-07-09T16:42:24.793Z,101041
2015-07-09T16:42:38.434Z,101044
2015-07-09T16:42:51.918Z,101044
2015-07-09T16:43:05.387Z,101035
2015-07-09T16:43:19.015Z,101044
2015-07-09T16:43:32.577Z,101044
2015-07-09T16:43:46.077Z,101041
2015-07-09T16:43:59.687Z,101053
2015-07-09T16:44:13.158Z,101041
2015-07-09T16:44:26.799Z,101044
2015-07-09T16:44:40.299Z,101044
2015-07-09T16:44:53.705Z,101047
2015-07-09T16:45:08.408Z,101035
2015-07-09T16:45:22.082Z,101047
2015-07-09T16:45:35.551Z,101047
2015-07-09T16:45:49.160Z,101047
2015-07-09T16:46:02.785Z,101057
2015-07-09T16:46:16.256Z,101038
2015-07-09T16:46:29.803Z,101038
2015-07-09T16:46:43.412Z,101038
2015-07-09T16:46:56.866Z,101044
2015-07-09T16:47:10.446Z,101044
2015-07-09T16:47:23.883Z,101047
2015-07-09T16:47:37.477Z,101053
2015-07-09T16:47:51.055Z,101038
2015-07-09T16:48:04.477Z,101041
2015-07-09T16:48:18.011Z,101044
2015-07-09T16:48:31.621Z,101044
2015-07-09T16:48:45.058Z,101044
2015-07-09T16:48:58.558Z,101044
2015-07-09T16:49:12.216Z,101056
2015-07-09T16:49:25.701Z,101047
2015-07-09T16:49:39.154Z,101047
2015-07-09T16:49:52.779Z,101044
2015-07-09T16:50:06.279Z,101044
2015-07-09T16:50:19.750Z,101056
2015-07-09T16:50:33.390Z,101053
2015-07-09T16:50:46.937Z,101050
2015-07-09T16:51:00.390Z,101050
2015-07-09T16:51:14.659Z,101047
2015-07-09T16:51:28.268Z,101044
2015-07-09T16:51:41.893Z,101044
2015-07-09T16:51:55.487Z,101050
2015-07-09T16:52:09.081Z,101059
2015-07-09T16:52:22.505Z,101050
2015-07-09T16:52:36.020Z,101056
2015-07-09T16:52:49.536Z,101063
2015-07-09T16:53:03.114Z,101047
2015-07-09T16:53:16.710Z,101059
2015-07-09T16:53:30.147Z,101047
2015-07-09T16:53:43.725Z,101041
2015-07-09T16:53:57.366Z,101047
2015-07-09T16:54:10.788Z,101056
2015-07-09T16:54:24.304Z,101053
2015-07-09T16:54:37.945Z,101050
2015-07-09T16:54:51.398Z,101056
2015-07-09T16:55:04.851Z,101035
2015-07-09T16:55:18.479Z,101038
2015-07-09T16:55:32.026Z,101047
2015-07-09T16:55:45.620Z,101047
2015-07-09T16:55:59.073Z,101047
2015-07-09T16:56:12.575Z,101056
2015-07-09T16:56:26.231Z,101056
2015-07-09T16:56:39.716Z,101050
2015-07-09T16:56:53.169Z,101053
2015-07-09T16:57:06.809Z,101056
2015-07-09T16:57:20.358Z,101050
2015-07-09T16:57:33.796Z,101060
2015-07-09T16:57:47.468Z,101044
2015-07-09T16:58:01.046Z,101032
2015-07-09T16:58:14.485Z,101044
2015-07-09T16:58:28.063Z,101057
2015-07-09T16:58:41.517Z,101041
2015-07-09T16:58:55.110Z,101041
2015-07-09T16:59:08.610Z,101050
2015-07-09T16:59:22.033Z,101047
2015-07-09T16:59:35.643Z,101053
2015-07-09T16:59:49.205Z,101041
2015-07-09T17:00:02.674Z,101053
2015-07-09T17:00:16.238Z,101066
2015-07-09T17:00:29.816Z,101053
2015-07-09T17:00:43.238Z,101072
2015-07-09T17:00:56.785Z,101066
2015-07-09T17:01:10.441Z,101038
2015-07-09T17:01:23.897Z,101060
2015-07-09T17:01:37.490Z,101056
2015-07-09T17:01:50.897Z,101060
2015-07-09T17:02:04.490Z,101060
2015-07-09T17:02:18.149Z,101069
2015-07-09T17:02:31.570Z,101057
2015-07-09T17:02:45.117Z,101060
2015-07-09T17:02:58.774Z,101056
2015-07-09T17:03:12.211Z,101060
2015-07-09T17:03:25.744Z,101060
2015-07-09T17:03:39.385Z,101053
2015-07-09T17:03:52.854Z,101066
2015-07-09T17:04:06.307Z,101060
2015-07-09T17:04:19.856Z,101063
2015-07-09T17:04:33.418Z,101057
2015-07-09T17:04:47.043Z,101072
2015-07-09T17:05:00.449Z,101069
2015-07-09T17:05:13.951Z,101075
2015-07-09T17:05:27.576Z,101057
2015-07-09T17:05:41.030Z,101069
2015-07-09T17:05:54.498Z,101063
2015-07-09T17:06:08.139Z,101063
2015-07-09T17:06:21.640Z,101063
2015-07-09T17:06:35.046Z,101088
2015-07-09T17:06:48.671Z,101072
2015-07-09T17:07:02.202Z,101078
2015-07-09T17:07:15.784Z,101054
2015-07-09T17:07:29.284Z,101063
2015-07-09T17:07:42.768Z,101078
2015-07-09T17:07:56.393Z,101075
2015-07-09T17:08:09.940Z,101066
2015-07-09T17:08:23.395Z,101066
2015-07-09T17:08:37.082Z,101072
2015-07-09T17:08:50.707Z,101075
2015-07-09T17:09:04.145Z,101075
2015-07-09T17:09:17.772Z,101069
2015-07-09T17:09:31.350Z,101054
2015-07-09T17:09:44.772Z,101069
2015-07-09T17:09:58.303Z,101054
2015-07-09T17:10:11.772Z,101069
2015-07-09T17:10:25.460Z,101063
2015-07-09T17:10:39.039Z,101063
2015-07-09T17:10:52.445Z,101072
2015-07-09T17:11:06.023Z,101075
2015-07-09T17:11:19.603Z,101066
2015-07-09T17:11:33.025Z,101078
2015-07-09T17:11:46.572Z,101085
2015-07-09T17:12:00.212Z,101078
2015-07-09T17:12:13.634Z,101088
2015-07-09T17:12:27.122Z,101075
2015-07-09T17:12:40.762Z,101085
2015-07-09T17:12:54.340Z,101072
2015-07-09T17:13:08.247Z,101081
2015-07-09T17:13:23.560Z,101081
2015-07-09T17:13:37.138Z,101072
2015-07-09T17:13:50.545Z,101085
2015-07-09T17:14:04.201Z,101069
2015-07-09T17:14:17.844Z,101085
2015-07-09T17:14:31.719Z,101091
2015-07-09T17:14:46.048Z,101088
2015-07-09T17:15:07.719Z,101082
2015-07-09T17:15:21.409Z,101075
2015-07-09T17:15:34.940Z,101081
2015-07-09T17:15:48.612Z,101082
2015-07-09T17:16:02.081Z,101085
2015-07-09T17:16:15.643Z,101099
2015-07-09T17:16:29.082Z,101094
2015-07-09T17:16:42.660Z,101085
2015-07-09T17:16:56.254Z,101082
2015-07-09T17:17:09.660Z,101078
2015-07-09T17:17:23.209Z,101078
2015-07-09T17:17:36.834Z,101078
2015-07-09T17:17:50.287Z,101084
2015-07-09T17:18:03.787Z,101081
2015-07-09T17:18:17.398Z,101091
2015-07-09T17:18:30.867Z,101078
2015-07-09T17:18:44.351Z,101078
2015-07-09T17:18:57.867Z,101088
2015-07-09T17:19:11.430Z,101099
2015-07-09T17:19:25.057Z,101084
2015-07-09T17:19:38.494Z,101099
2015-07-09T17:19:52.041Z,101078
2015-07-09T17:20:05.697Z,101075
2015-07-09T17:20:19.215Z,101085
2015-07-09T17:20:32.684Z,101085
2015-07-09T17:20:46.340Z,101091
2015-07-09T17:20:59.871Z,101081
2015-07-09T17:21:14.293Z,101099
2015-07-09T17:21:27.936Z,101081
2015-07-09T17:21:41.482Z,101091
2015-07-09T17:21:55.029Z,101085
2015-07-09T17:22:08.529Z,101081
2015-07-09T17:22:22.078Z,101091
2015-07-09T17:22:35.688Z,101084
2015-07-09T17:22:49.266Z,101091
2015-07-09T17:23:02.719Z,101075
2015-07-09T17:23:16.328Z,101091
2015-07-09T17:23:29.893Z,101094
2015-07-09T17:23:43.393Z,101099
2015-07-09T17:23:57.002Z,101088
2015-07-09T17:24:10.611Z,101081
2015-07-09T17:24:24.034Z,101088
2015-07-09T17:24:37.628Z,101094
2015-07-09T17:24:51.128Z,101091
2015-07-09T17:25:04.784Z,101099
2015-07-09T17:25:18.409Z,101085
2015-07-09T17:25:31.850Z,101094
2015-07-09T17:25:45.506Z,101088
2015-07-09T17:25:59.069Z,101105
2015-07-09T17:26:12.475Z,101118
2015-07-09T17:26:26.023Z,101108
2015-07-09T17:26:39.648Z,101088
2015-07-09T17:26:53.054Z,101099
2015-07-09T17:27:06.538Z,101105
2015-07-09T17:27:20.197Z,101111
2015-07-09T17:27:33.806Z,101105
2015-07-09T17:27:47.400Z,101105
2015-07-09T17:28:00.806Z,101094
2015-07-09T17:28:14.368Z,101102
2015-07-09T17:28:27.995Z,101105
2015-07-09T17:28:41.449Z,101111
2015-07-09T17:28:54.949Z,101111
2015-07-09T17:29:08.589Z,101111
2015-07-09T17:29:22.044Z,101111
2015-07-09T17:29:35.497Z,101102
2015-07-09T17:29:49.138Z,101108
2015-07-09T17:30:02.701Z,101111
2015-07-09T17:30:16.138Z,101111
2015-07-09T17:30:29.749Z,101102
2015-07-09T17:30:43.281Z,101108
2015-07-09T17:30:56.968Z,101108
2015-07-09T17:31:10.468Z,101111
2015-07-09T17:31:23.986Z,101114
2015-07-09T17:31:37.658Z,101108
2015-07-09T17:31:51.158Z,101120
2015-07-09T17:32:04.564Z,101120
2015-07-09T17:32:18.189Z,101108
2015-07-09T17:32:31.769Z,101108
2015-07-09T17:32:45.207Z,101105
2015-07-09T17:32:58.769Z,101111
2015-07-09T17:33:12.347Z,101102
2015-07-09T17:33:25.880Z,101105
2015-07-09T17:33:39.396Z,101099
2015-07-09T17:33:52.802Z,101111
2015-07-09T17:34:06.412Z,101111
2015-07-09T17:34:19.959Z,101111
2015-07-09T17:34:33.398Z,101102
2015-07-09T17:34:46.992Z,101117
2015-07-09T17:35:00.586Z,101108
2015-07-09T17:35:14.039Z,101120
2015-07-09T17:35:27.650Z,101117
2015-07-09T17:35:41.306Z,101120
2015-07-09T17:35:54.744Z,101105
2015-07-09T17:36:08.275Z,101105
2015-07-09T17:36:21.963Z,101111
2015-07-09T17:36:35.433Z,101114
2015-07-09T17:36:48.918Z,101117
2015-07-09T17:37:02.590Z,101117
2015-07-09T17:37:16.136Z,101114
2015-07-09T17:37:29.575Z,101111
2015-07-09T17:37:43.200Z,101120
2015-07-09T17:37:56.731Z,101126
2015-07-09T17:38:10.184Z,101123
2015-07-09T17:38:23.843Z,101126
2015-07-09T17:38:37.436Z,101117
2015-07-09T17:38:50.843Z,101111
2015-07-09T17:39:04.421Z,101132
2015-07-09T17:39:18.202Z,101120
2015-07-09T17:39:31.924Z,101120
2015-07-09T17:39:51.299Z,101111
2015-07-09T17:40:05.205Z,101139
2015-07-09T17:40:19.080Z,101126
2015-07-09T17:40:33.613Z,101129
2015-07-09T17:40:47.051Z,101117
2015-07-09T17:41:00.613Z,101129
2015-07-09T17:41:14.269Z,101126
2015-07-09T17:41:27.725Z,101120
2015-07-09T17:41:41.240Z,101120
2015-07-09T17:41:54.928Z,101117
2015-07-09T17:42:08.412Z,101129
2015-07-09T17:42:22.037Z,101117
2015-07-09T17:42:35.507Z,101123
2015-07-09T17:42:49.085Z,101117
2015-07-09T17:43:02.913Z,101123
2015-07-09T17:43:16.585Z,101132
2015-07-09T17:43:30.118Z,101123
2015-07-09T17:43:43.743Z,101123
2015-07-09T17:43:57.368Z,101110
2015-07-09T17:44:10.821Z,101126
2015-07-09T17:44:24.448Z,101120
2015-07-09T17:44:38.698Z,101126
2015-07-09T17:44:52.120Z,101126
2015-07-09T17:45:06.698Z,101116
2015-07-09T17:45:20.261Z,101129
2015-07-09T17:45:33.888Z,101126
2015-07-09T17:45:47.357Z,101120
2015-07-09T17:46:00.825Z,101116
2015-07-09T17:46:14.966Z,101129
2015-07-09T17:46:28.905Z,101123
2015-07-09T17:46:42.343Z,101107
2015-07-09T17:46:56.046Z,101107
2015-07-09T17:47:09.593Z,101123
2015-07-09T17:47:23.046Z,101114
2015-07-09T17:47:36.626Z,101123
2015-07-09T17:47:50.595Z,101129
2015-07-09T17:48:04.126Z,101135
2015-07-09T17:48:18.189Z,101123
2015-07-09T17:48:31.628Z,101114
2015-07-09T17:48:45.269Z,101138
2015-07-09T17:48:58.878Z,101126
2015-07-09T17:49:12.316Z,101129
2015-07-09T17:49:26.068Z,101123
2015-07-09T17:49:45.490Z,101129
2015-07-09T17:50:02.646Z,101139
2015-07-09T17:50:16.161Z,101126
2015-07-09T17:50:29.835Z,101136
2015-07-09T17:50:44.538Z,101136
2015-07-09T17:50:58.007Z,101139
2015-07-09T17:51:12.242Z,101139
2015-07-09T17:51:25.835Z,101129
2015-07-09T17:51:40.681Z,101135
2015-07-09T17:51:54.400Z,101148
2015-07-09T17:52:07.947Z,101132
2015-07-09T17:52:21.587Z,101139
2015-07-09T17:52:35.010Z,101135
2015-07-09T17:52:48.510Z,101157
2015-07-09T17:53:02.557Z,101129
2015-07-09T17:53:16.416Z,101142
2015-07-09T17:53:29.872Z,101132
2015-07-09T17:53:43.512Z,101132
2015-07-09T17:53:57.028Z,101126
2015-07-09T17:54:10.856Z,101126
2015-07-09T17:54:24.293Z,101126
2015-07-09T17:54:37.828Z,101138
2015-07-09T17:54:51.765Z,101120
2015-07-09T17:55:05.250Z,101145
2015-07-09T17:55:18.968Z,101129
2015-07-09T17:55:32.955Z,101132
2015-07-09T17:55:46.470Z,101129
2015-07-09T17:55:59.955Z,101132
2015-07-09T17:56:13.564Z,101142
2015-07-09T17:56:27.113Z,101126
2015-07-09T17:56:40.910Z,101142
2015-07-09T17:56:55.941Z,101132
2015-07-09T17:57:09.441Z,101141
2015-07-09T17:57:23.082Z,101132
2015-07-09T17:57:36.630Z,101138
2015-07-09T17:57:54.973Z,101129
2015-07-09T17:58:09.286Z,101145
2015-07-09T17:58:22.833Z,101141
2015-07-09T17:58:36.257Z,101145
2015-07-09T17:58:49.835Z,101145
2015-07-09T17:59:03.413Z,101141
2015-07-09T17:59:16.835Z,101151
2015-07-09T17:59:35.149Z,101135
2015-07-09T17:59:50.962Z,101135
2015-07-09T18:00:04.430Z,101138
2015-07-09T18:00:17.962Z,101148
2015-07-09T18:00:31.651Z,101141
2015-07-09T18:00:46.182Z,101129
2015-07-09T18:01:02.354Z,101129
2015-07-09T18:01:16.089Z,101138
2015-07-09T18:01:30.028Z,101135
2015-07-09T18:01:43.700Z,101138
2015-07-09T18:01:57.309Z,101135
2015-07-09T18:02:10.856Z,101141
2015-07-09T18:02:24.263Z,101135
2015-07-09T18:02:37.843Z,101126
2015-07-09T18:02:51.640Z,101144
2015-07-09T18:03:05.452Z,101157
2015-07-09T18:03:18.952Z,101141
2015-07-09T18:03:32.345Z,101154
2015-07-09T18:03:46.204Z,101126
2015-07-09T18:04:00.204Z,101135
2015-07-09T18:04:13.704Z,101148
2015-07-09T18:04:27.298Z,101144
2015-07-09T18:04:40.894Z,101144
2015-07-09T18:04:54.347Z,101141
2015-07-09T18:05:07.878Z,101151
2015-07-09T18:05:21.565Z,101132
2015-07-09T18:05:35.520Z,101144
2015-07-09T18:05:49.035Z,101138
2015-07-09T18:06:02.566Z,101147
2015-07-09T18:06:16.176Z,101147
2015-07-09T18:06:29.818Z,101154
2015-07-09T18:06:44.084Z,101141
2015-07-09T18:06:57.647Z,101151
2015-07-09T18:07:11.256Z,101157
2015-07-09T18:07:24.693Z,101163
2015-07-09T18:07:38.180Z,101138
2015-07-09T18:07:51.789Z,101135
2015-07-09T18:08:05.289Z,101144
2015-07-09T18:08:18.742Z,101141
2015-07-09T18:08:32.401Z,101154
2015-07-09T18:08:45.932Z,101151
2015-07-09T18:08:59.510Z,101147
2015-07-09T18:09:13.213Z,101151
2015-07-09T18:09:26.807Z,101157
2015-07-09T18:09:40.434Z,101138
2015-07-09T18:09:53.903Z,101144
2015-07-09T18:10:07.371Z,101160
2015-07-09T18:10:23.731Z,101151
2015-07-09T18:10:38.764Z,101145
2015-07-09T18:10:52.264Z,101135
2015-07-09T18:11:06.326Z,101141
2015-07-09T18:11:22.076Z,101141
2015-07-09T18:11:35.532Z,101151
2015-07-09T18:11:49.141Z,101154
2015-07-09T18:12:02.625Z,101154
2015-07-09T18:12:16.266Z,101160
2015-07-09T18:12:29.768Z,101145
2015-07-09T18:12:43.221Z,101154
2015-07-09T18:12:56.846Z,101151
2015-07-09T18:13:10.393Z,101157
2015-07-09T18:13:23.815Z,101148
2015-07-09T18:13:37.411Z,101157
2015-07-09T18:13:50.973Z,101154
2015-07-09T18:14:04.395Z,101151
2015-07-09T18:14:17.926Z,101145
2015-07-09T18:14:31.538Z,101135
2015-07-09T18:14:45.022Z,101135
2015-07-09T18:14:58.772Z,101148
2015-07-09T18:15:12.397Z,101163
2015-07-09T18:15:26.194Z,101148
2015-07-09T18:15:39.805Z,101151
2015-07-09T18:15:53.227Z,101154
2015-07-09T18:16:06.758Z,101160
2015-07-09T18:16:20.383Z,101154
2015-07-09T18:16:33.792Z,101154
2015-07-09T18:16:47.307Z,101163
2015-07-09T18:17:00.948Z,101151
2015-07-09T18:17:14.432Z,101154
2015-07-09T18:17:27.948Z,101144
2015-07-09T18:17:42.340Z,101151
2015-07-09T18:17:55.965Z,101160
2015-07-09T18:18:09.590Z,101154
2015-07-09T18:18:23.559Z,101160
2015-07-09T18:18:42.811Z,101154
2015-07-09T18:18:56.452Z,101157
2015-07-09T18:19:09.905Z,101154
2015-07-09T18:19:23.342Z,101175
2015-07-09T18:19:36.984Z,101154
2015-07-09T18:19:50.500Z,101160
2015-07-09T18:20:03.906Z,101154
2015-07-09T18:20:17.515Z,101164
2015-07-09T18:20:31.095Z,101157
2015-07-09T18:20:44.674Z,101164
2015-07-09T18:20:59.486Z,101148
2015-07-09T18:21:14.158Z,101164
2015-07-09T18:21:27.845Z,101154
2015-07-09T18:21:41.426Z,101164
2015-07-09T18:21:54.910Z,101148
2015-07-09T18:22:08.644Z,101151
2015-07-09T18:22:22.207Z,101161
2015-07-09T18:22:35.756Z,101151
2015-07-09T18:22:49.396Z,101169
2015-07-09T18:23:02.990Z,101158
2015-07-09T18:23:16.474Z,101161
2015-07-09T18:23:30.099Z,101161
2015-07-09T18:23:43.742Z,101164
2015-07-09T18:23:57.195Z,101166
2015-07-09T18:24:10.726Z,101161
2015-07-09T18:24:24.336Z,101151
2015-07-09T18:24:39.916Z,101164
2015-07-09T18:24:53.432Z,101148
2015-07-09T18:25:07.057Z,101164
2015-07-09T18:25:20.572Z,101166
2015-07-09T18:25:34.027Z,101161
2015-07-09T18:25:51.793Z,101166
2015-07-09T18:26:07.824Z,101164
2015-07-09T18:26:21.262Z,101155
2015-07-09T18:26:34.842Z,101166
2015-07-09T18:26:48.295Z,101161
2015-07-09T18:27:01.920Z,101158
2015-07-09T18:27:19.217Z,101158
2015-07-09T18:27:32.920Z,101169
2015-07-09T18:27:46.578Z,101155
2015-07-09T18:28:00.156Z,101161
2015-07-09T18:28:13.594Z,101166
2015-07-09T18:28:27.219Z,101166
2015-07-09T18:28:41.533Z,101161
2015-07-09T18:28:55.065Z,101155
2015-07-09T18:29:08.627Z,101164
2015-07-09T18:29:22.315Z,101158
2015-07-09T18:29:35.785Z,101166
2015-07-09T18:29:49.317Z,101169
2015-07-09T18:30:02.723Z,101164
2015-07-09T18:30:16.332Z,101166
2015-07-09T18:30:29.910Z,101161
2015-07-09T18:30:43.318Z,101164
2015-07-09T18:30:56.880Z,101155
2015-07-09T18:31:12.161Z,101173
2015-07-09T18:31:29.958Z,101164
2015-07-09T18:31:43.460Z,101161
2015-07-09T18:32:01.351Z,101164
2015-07-09T18:32:14.851Z,101173
2015-07-09T18:32:28.601Z,101173
2015-07-09T18:32:43.087Z,101164
2015-07-09T18:32:56.634Z,101161
2015-07-09T18:33:10.290Z,101176
2015-07-09T18:33:24.884Z,101169
2015-07-09T18:33:41.214Z,101173
2015-07-09T18:33:54.855Z,101176
2015-07-09T18:34:08.324Z,101161
2015-07-09T18:34:21.886Z,101166
2015-07-09T18:34:35.558Z,101169
2015-07-09T18:34:49.076Z,101173
2015-07-09T18:35:02.841Z,101166
2015-07-09T18:35:16.669Z,101173
2015-07-09T18:35:30.247Z,101158
2015-07-09T18:35:43.859Z,101169
2015-07-09T18:35:57.296Z,101173
2015-07-09T18:36:10.781Z,101173
2015-07-09T18:36:24.499Z,101173
2015-07-09T18:36:39.502Z,101166
2015-07-09T18:36:53.252Z,101169
2015-07-09T18:37:13.299Z,101166
2015-07-09T18:37:26.909Z,101176
2015-07-09T18:37:40.332Z,101176
2015-07-09T18:37:53.941Z,101173
2015-07-09T18:38:07.550Z,101173
2015-07-09T18:38:21.566Z,101164
2015-07-09T18:38:35.550Z,101185
2015-07-09T18:38:48.990Z,101176
2015-07-09T18:39:02.677Z,101173
2015-07-09T18:39:17.584Z,101182
2015-07-09T18:39:31.037Z,101179
2015-07-09T18:39:46.117Z,101176